Time;durP1;ratioP1;P1;durP2;ratioP2;P2;SDS_P1;SDS_P2;PMS_P1;PMS_P2;Temp;Humidity;BMP_temperature;BMP_pressure;BME280_temperature;BME280_humidity;BME280_pressure;Samples;Min_cycle;Max_cycle;Signal;HPM_P1;HPM_P2
2023/04/04 00:00:14;;;;;;;4.28;1.73;;;-3275.30;83.90;;;;;;5004920;28;20081;-76
2023/04/04 00:02:39;;;;;;;7.70;2.22;;;-3275.30;84.10;;;;;;5006215;28;20109;-76
2023/04/04 00:05:06;;;;;;;6.10;2.30;;;-3275.20;83.70;;;;;;5011750;28;20061;-77
2023/04/04 00:07:32;;;;;;;5.18;2.20;;;-3275.20;83.80;;;;;;4998502;28;20034;-76
2023/04/04 00:09:57;;;;;;;5.97;2.05;;;-3275.20;83.80;;;;;;5016430;28;20029;-77
2023/04/04 00:12:23;;;;;;;6.22;2.25;;;-3275.20;83.80;;;;;;5013124;28;20045;-76
2023/04/04 00:14:49;;;;;;;6.70;2.33;;;-3275.20;83.70;;;;;;5007467;28;20033;-76
2023/04/04 00:17:15;;;;;;;5.88;1.92;;;-3275.10;83.20;;;;;;4990283;28;20022;-77
2023/04/04 00:19:40;;;;;;;7.35;1.70;;;-3275.20;82.90;;;;;;4992292;28;20080;-76
2023/04/04 00:22:06;;;;;;;4.65;1.52;;;-3275.20;82.30;;;;;;5011398;28;20048;-77
2023/04/04 00:24:32;;;;;;;5.40;1.50;;;-3275.20;82.10;;;;;;4985674;28;20042;-76
2023/04/04 00:26:58;;;;;;;3.80;1.70;;;-3275.30;81.50;;;;;;5007773;28;20017;-76
2023/04/04 00:29:23;;;;;;;3.47;1.33;;;-3275.40;81.30;;;;;;4990701;28;20163;-77
2023/04/04 00:31:49;;;;;;;5.95;1.50;;;-3275.30;81.10;;;;;;4985614;28;20300;-77
2023/04/04 00:34:14;;;;;;;3.33;1.40;;;-3275.30;81.30;;;;;;4990845;28;20072;-77
2023/04/04 00:36:40;;;;;;;6.95;1.55;;;-3275.40;80.70;;;;;;4997642;28;20352;-77
2023/04/04 00:39:06;;;;;;;4.38;1.20;;;-3275.40;79.90;;;;;;5008320;28;20114;-77
2023/04/04 00:41:31;;;;;;;6.38;1.50;;;-3275.40;79.60;;;;;;5007844;28;20457;-77
2023/04/04 00:43:57;;;;;;;3.70;1.25;;;-3275.40;79.60;;;;;;5005824;28;20066;-77
2023/04/04 00:46:24;;;;;;;4.13;1.20;;;-3275.50;79.40;;;;;;5008251;28;20072;-76
2023/04/04 00:48:50;;;;;;;3.78;1.40;;;-3275.40;80.50;;;;;;5008299;28;20104;-76
2023/04/04 00:51:15;;;;;;;4.15;1.75;;;-3275.30;80.70;;;;;;5008122;28;20406;-78
2023/04/04 00:53:45;;;;;;;2.88;1.48;;;-3275.30;80.90;;;;;;4999718;28;20076;-77
2023/04/04 00:56:10;;;;;;;2.83;1.52;;;-3275.30;81.20;;;;;;5007557;28;20022;-77
2023/04/04 00:58:36;;;;;;;4.55;1.33;;;-3275.20;81.50;;;;;;5003670;28;20491;-77
2023/04/04 01:01:02;;;;;;;7.65;1.73;;;-3275.20;81.30;;;;;;4989887;28;20447;-78
2023/04/04 01:03:28;;;;;;;7.32;1.45;;;-3275.20;81.10;;;;;;5006367;28;20324;-77
2023/04/04 01:05:54;;;;;;;5.60;1.48;;;-3275.20;81.00;;;;;;5000974;28;20399;-76
2023/04/04 01:08:23;;;;;;;3.53;1.50;;;-3275.20;80.80;;;;;;4974003;28;20030;-77
2023/04/04 01:10:49;;;;;;;3.70;1.65;;;-3275.10;81.20;;;;;;5008206;28;20081;-77
2023/04/04 01:13:15;;;;;;;3.13;1.55;;;-3275.10;81.60;;;;;;5007075;28;20113;-76
2023/04/04 01:15:41;;;;;;;5.30;1.80;;;-3275.10;81.10;;;;;;5007281;28;20107;-77
2023/04/04 01:18:08;;;;;;;3.28;1.60;;;-3275.10;80.70;;;;;;5005545;28;20045;-78
2023/04/04 01:20:39;;;;;;;6.50;2.05;;;-3275.10;80.90;;;;;;4989326;28;20489;-77
2023/04/04 01:23:04;;;;;;;;;;;-3275.00;80.90;;;;;;5006389;28;20528;-77
2023/04/04 01:25:31;;;;;;;5.43;1.70;;;-3275.10;81.20;;;;;;5005652;28;20026;-78
2023/04/04 01:27:58;;;;;;;3.63;1.45;;;-3275.00;81.50;;;;;;5003368;28;20033;-77
2023/04/04 01:30:27;;;;;;;5.35;1.55;;;-3275.00;81.70;;;;;;4987382;28;20038;-77
2023/04/04 01:33:12;;;;;;;4.70;1.80;;;-3275.00;81.70;;;;;;4998744;28;20030;-77
2023/04/04 01:35:44;;;;;;;3.50;1.30;;;-3275.00;81.60;;;;;;4998353;28;20106;-77
2023/04/04 01:38:20;;;;;;;3.33;1.55;;;-3275.00;81.20;;;;;;5006623;28;20053;-77
2023/04/04 01:40:53;;;;;;;3.45;1.30;;;-3275.00;81.70;;;;;;5004399;28;20038;-78
2023/04/04 01:43:19;;;;;;;5.00;1.70;;;-3275.00;81.80;;;;;;4990639;28;20036;-77
2023/04/04 01:45:45;;;;;;;6.85;1.63;;;-3274.90;82.10;;;;;;4993614;28;20031;-77
2023/04/04 01:48:10;;;;;;;5.45;2.03;;;-3275.00;81.70;;;;;;4998343;28;20034;-76
2023/04/04 01:50:36;;;;;;;4.45;2.03;;;-3275.00;81.50;;;;;;4989247;28;20164;-77
2023/04/04 01:53:01;;;;;;;4.65;1.45;;;-3275.10;81.10;;;;;;5007143;28;20040;-77
2023/04/04 01:55:27;;;;;;;3.90;2.20;;;-3275.10;81.10;;;;;;5007573;28;20040;-77
2023/04/04 01:57:52;;;;;;;7.57;1.45;;;-3275.10;81.30;;;;;;4987927;28;20466;-78
2023/04/04 02:00:18;;;;;;;4.30;1.40;;;-3275.10;81.20;;;;;;5002289;28;20051;-78
2023/04/04 02:02:43;;;;;;;3.40;1.75;;;-3275.20;80.80;;;;;;5007234;28;20076;-78
2023/04/04 02:05:09;;;;;;;5.57;1.50;;;-3275.20;80.90;;;;;;4996687;28;20075;-78
2023/04/04 02:07:35;;;;;;;3.90;1.60;;;-3275.20;81.10;;;;;;5014613;28;20101;-77
2023/04/04 02:10:00;;;;;;;3.80;1.50;;;-3275.20;81.30;;;;;;4989325;28;20175;-77
2023/04/04 02:12:26;;;;;;;4.97;1.75;;;-3275.20;81.60;;;;;;4986951;28;20038;-77
2023/04/04 02:14:52;;;;;;;5.32;1.45;;;-3275.10;81.20;;;;;;4988616;28;20030;-77
2023/04/04 02:17:17;;;;;;;4.43;1.35;;;-3275.20;81.10;;;;;;5006570;28;20383;-77
2023/04/04 02:19:43;;;;;;;3.85;1.30;;;-3275.20;81.20;;;;;;4988601;28;20383;-78
2023/04/04 02:22:08;;;;;;;3.97;1.58;;;-3275.20;81.40;;;;;;5005680;28;20140;-77
2023/04/04 02:24:34;;;;;;;3.63;1.30;;;-3275.20;81.50;;;;;;5007088;28;20343;-77
2023/04/04 02:26:59;;;;;;;3.90;1.40;;;-3275.30;81.50;;;;;;4998653;28;20057;-79
2023/04/04 02:29:25;;;;;;;7.30;1.58;;;-3275.40;81.50;;;;;;4995674;28;20056;-77
2023/04/04 02:31:50;;;;;;;10.23;1.58;;;-3275.40;81.10;;;;;;5004112;28;20065;-78
2023/04/04 02:34:16;;;;;;;6.13;1.50;;;-3275.40;81.20;;;;;;4999410;28;20045;-76
2023/04/04 02:36:41;;;;;;;4.78;1.20;;;-3275.50;81.20;;;;;;5004958;28;20100;-76
2023/04/04 02:39:07;;;;;;;2.70;1.40;;;-3275.50;80.90;;;;;;5006842;28;20108;-77
2023/04/04 02:41:32;;;;;;;2.50;1.23;;;-3275.50;80.80;;;;;;5005466;28;20340;-77
2023/04/04 02:43:58;;;;;;;3.55;1.30;;;-3275.40;81.20;;;;;;5007270;28;20034;-78
2023/04/04 02:46:23;;;;;;;2.65;1.10;;;-3275.50;81.10;;;;;;5007126;28;20532;-77
2023/04/04 02:48:50;;;;;;;3.22;1.05;;;-3275.50;80.60;;;;;;4988700;28;20084;-77
2023/04/04 02:51:15;;;;;;;8.35;1.55;;;-3275.40;80.80;;;;;;5005700;28;20040;-80
2023/04/04 02:53:41;;;;;;;5.90;1.30;;;-3275.40;80.80;;;;;;5007135;28;20064;-77
2023/04/04 02:56:07;;;;;;;3.90;1.23;;;-3275.40;80.80;;;;;;5004239;28;20036;-78
2023/04/04 02:58:32;;;;;;;4.70;1.20;;;-3275.40;81.10;;;;;;5004639;28;20461;-78
2023/04/04 03:00:58;;;;;;;2.63;1.15;;;-3275.30;81.10;;;;;;5007696;28;20125;-78
2023/04/04 03:03:23;;;;;;;3.22;1.38;;;-3275.40;81.30;;;;;;4996888;28;20121;-77
2023/04/04 03:05:50;;;;;;;4.75;1.20;;;-3275.30;81.00;;;;;;5005292;28;20477;-78
2023/04/04 03:08:16;;;;;;;2.53;1.30;;;-3275.40;81.20;;;;;;4996982;28;20051;-77
2023/04/04 03:10:41;;;;;;;2.63;1.42;;;-3275.30;81.50;;;;;;5006651;28;20030;-80
2023/04/04 03:13:07;;;;;;;3.22;1.80;;;-3275.30;81.60;;;;;;4988871;28;20033;-79
2023/04/04 03:15:33;;;;;;;3.53;1.35;;;-3275.30;81.90;;;;;;4986791;28;20078;-77
2023/04/04 03:17:59;;;;;;;5.72;1.77;;;-3275.30;81.90;;;;;;5005633;28;20497;-78
2023/04/04 03:20:25;;;;;;;2.67;1.20;;;-3275.30;82.00;;;;;;5005024;28;20176;-78
2023/04/04 03:22:50;;;;;;;4.15;1.40;;;-3275.30;82.20;;;;;;4988041;28;20458;-78
2023/04/04 03:25:16;;;;;;;3.95;1.30;;;-3275.30;82.10;;;;;;4986469;28;20037;-78
2023/04/04 03:27:42;;;;;;;4.25;1.60;;;-3275.40;82.60;;;;;;5010540;28;20041;-78
2023/04/04 03:30:08;;;;;;;3.35;1.40;;;-3275.40;82.60;;;;;;5004649;28;20029;-79
2023/04/04 03:32:35;;;;;;;5.00;1.65;;;-3275.40;82.50;;;;;;4996966;28;20045;-78
2023/04/04 03:35:01;;;;;;;1.80;1.10;;;-3275.40;82.40;;;;;;4986858;28;20420;-78
2023/04/04 03:37:28;;;;;;;2.40;1.27;;;-3275.30;82.50;;;;;;4993133;28;20151;-78
2023/04/04 03:39:54;;;;;;;2.95;1.15;;;-3275.40;82.70;;;;;;5006160;28;20351;-78
2023/04/04 03:42:20;;;;;;;5.35;1.73;;;-3275.30;82.70;;;;;;5004360;28;20049;-79
2023/04/04 03:44:46;;;;;;;5.95;1.30;;;-3275.30;82.80;;;;;;5006910;28;20528;-78
2023/04/04 03:47:13;;;;;;;3.28;1.38;;;-3275.30;83.10;;;;;;4991774;28;20022;-78
2023/04/04 03:49:38;;;;;;;7.53;1.63;;;-3275.30;82.90;;;;;;4985726;28;20035;-78
2023/04/04 03:52:04;;;;;;;6.45;1.80;;;-3275.30;82.80;;;;;;4987125;28;20036;-77
2023/04/04 03:54:30;;;;;;;4.85;1.80;;;-3275.30;83.20;;;;;;4999866;28;20069;-78
2023/04/04 03:56:56;;;;;;;2.97;1.50;;;-3275.30;83.40;;;;;;5007734;28;20030;-76
2023/04/04 03:59:22;;;;;;;2.80;1.65;;;-3275.40;83.50;;;;;;4985228;28;20057;-77
2023/04/04 04:01:47;;;;;;;5.53;1.98;;;-3275.40;83.30;;;;;;4994856;28;20035;-78
2023/04/04 04:04:13;;;;;;;5.82;1.60;;;-3275.40;82.90;;;;;;4983513;28;20018;-82
2023/04/04 04:06:38;;;;;;;4.60;1.60;;;-3275.40;82.60;;;;;;4975420;28;20045;-78
2023/04/04 04:09:04;;;;;;;4.35;1.70;;;-3275.40;82.60;;;;;;4973766;28;20031;-81
2023/04/04 04:11:30;;;;;;;5.55;1.55;;;-3275.40;82.20;;;;;;4986605;28;20022;-76
2023/04/04 04:13:55;;;;;;;6.03;1.80;;;-3275.40;82.40;;;;;;4984652;28;20423;-75
2023/04/04 04:16:21;;;;;;;3.05;1.40;;;-3275.40;82.30;;;;;;4986875;28;20598;-77
2023/04/04 04:18:47;;;;;;;6.13;1.67;;;-3275.50;82.10;;;;;;4988280;28;20065;-79
2023/04/04 04:21:13;;;;;;;3.55;1.58;;;-3275.50;82.10;;;;;;4984835;28;20154;-76
2023/04/04 04:23:38;;;;;;;3.70;1.70;;;-3275.50;82.20;;;;;;4977982;28;20035;-78
2023/04/04 04:26:05;;;;;;;3.92;1.98;;;-3275.50;82.50;;;;;;4986555;28;20022;-78
2023/04/04 04:28:31;;;;;;;5.85;1.63;;;-3275.50;82.50;;;;;;4988921;28;20022;-78
2023/04/04 04:31:02;;;;;;;7.55;1.75;;;-3275.50;82.80;;;;;;4986808;28;20041;-76
2023/04/04 04:33:31;;;;;;;3.78;1.60;;;-3275.50;82.50;;;;;;4988348;28;20319;-75
2023/04/04 04:36:03;;;;;;;3.20;1.38;;;-3275.50;82.50;;;;;;4988634;28;20473;-74
2023/04/04 04:38:29;;;;;;;4.22;1.40;;;-3275.50;82.50;;;;;;4985898;28;20125;-74
2023/04/04 04:40:56;;;;;;;4.82;1.58;;;-3275.50;82.60;;;;;;4986068;28;20107;-74
2023/04/04 04:43:21;;;;;;;7.38;1.70;;;-3275.50;82.70;;;;;;4998560;28;20033;-73
2023/04/04 04:45:47;;;;;;;5.47;1.42;;;-3275.50;83.00;;;;;;4983648;28;20496;-75
2023/04/04 04:48:13;;;;;;;4.05;1.30;;;-3275.60;82.70;;;;;;4984588;28;20026;-75
2023/04/04 04:50:38;;;;;;;3.88;1.20;;;-3275.60;82.60;;;;;;4980042;28;20482;-74
2023/04/04 04:53:04;;;;;;;4.05;1.42;;;-3275.70;82.40;;;;;;4988687;28;20037;-74
2023/04/04 04:55:29;;;;;;;5.68;1.63;;;-3275.70;82.50;;;;;;4989043;28;20167;-75
2023/04/04 04:57:55;;;;;;;9.27;1.67;;;-3275.70;82.60;;;;;;4984937;28;20037;-74
2023/04/04 05:00:22;;;;;;;4.88;1.92;;;-3275.70;82.50;;;;;;4990401;28;20360;-75
2023/04/04 05:02:47;;;;;;;6.68;1.50;;;-3275.70;81.90;;;;;;4999538;28;20053;-75
2023/04/04 05:05:13;;;;;;;6.10;1.65;;;-3275.80;81.80;;;;;;5006565;28;20018;-76
2023/04/04 05:07:43;;;;;;;4.10;1.08;;;-3275.80;81.70;;;;;;4988594;28;20485;-76
2023/04/04 05:10:09;;;;;;;5.25;1.30;;;-3275.80;81.70;;;;;;4981879;28;20064;-75
2023/04/04 05:12:34;;;;;;;5.18;1.67;;;-3275.90;81.70;;;;;;5005742;28;20057;-75
2023/04/04 05:14:59;;;;;;;7.63;1.92;;;-3275.90;81.50;;;;;;5008599;28;20085;-76
2023/04/04 05:17:25;;;;;;;5.75;1.73;;;-3276.00;81.90;;;;;;5001516;28;20495;-77
2023/04/04 05:19:51;;;;;;;6.00;1.80;;;-3276.00;81.90;;;;;;4992491;28;20174;-77
2023/04/04 05:22:16;;;;;;;2.67;1.50;;;-3276.10;81.90;;;;;;5007738;28;20037;-76
2023/04/04 05:24:42;;;;;;;4.70;1.63;;;-3276.10;81.50;;;;;;4980234;28;20038;-76
2023/04/04 05:27:07;;;;;;;4.25;1.60;;;-3276.20;81.50;;;;;;5007202;28;20025;-74
2023/04/04 05:29:33;;;;;;;4.40;1.65;;;-3276.20;81.20;;;;;;5002033;28;20149;-74
2023/04/04 05:31:58;;;;;;;4.50;1.77;;;-3276.30;81.00;;;;;;5008070;28;20026;-74
2023/04/04 05:34:24;;;;;;;7.20;1.58;;;-3276.30;80.90;;;;;;5010806;28;20021;-75
2023/04/04 05:36:49;;;;;;;6.38;1.95;;;-3276.40;80.80;;;;;;5007985;28;20483;-75
2023/04/04 05:39:15;;;;;;;5.90;1.77;;;-3276.40;80.50;;;;;;5009516;28;20085;-75
2023/04/04 05:41:40;;;;;;;5.95;2.08;;;-3276.40;80.90;;;;;;5008095;28;20417;-75
2023/04/04 05:44:06;;;;;;;4.85;1.98;;;-3276.40;80.80;;;;;;5009533;28;20123;-75
2023/04/04 05:46:31;;;;;;;6.90;2.28;;;-3276.50;80.50;;;;;;5007368;28;20069;-75
2023/04/04 05:48:57;;;;;;;5.85;2.00;;;-3276.50;80.20;;;;;;5010250;28;20534;-75
2023/04/04 05:51:22;;;;;;;7.40;2.05;;;-3276.50;80.00;;;;;;5008852;28;20053;-75
2023/04/04 05:53:48;;;;;;;4.97;1.83;;;-3276.60;80.30;;;;;;4990115;28;20053;-76
2023/04/04 05:56:13;;;;;;;4.80;1.73;;;-3276.60;79.90;;;;;;5006351;28;20022;-75
2023/04/04 05:58:39;;;;;;;4.18;1.70;;;-3276.60;79.60;;;;;;5009424;28;20068;-75
2023/04/04 06:01:08;;;;;;;6.07;1.80;;;-3276.70;79.70;;;;;;4982132;28;20114;-75
2023/04/04 06:03:33;;;;;;;4.93;2.00;;;0.00;79.60;;;;;;5006697;28;20036;-76
2023/04/04 06:06:01;;;;;;;5.68;1.73;;;0.00;79.50;;;;;;5008914;28;20022;-76
2023/04/04 06:08:27;;;;;;;4.07;1.58;;;0.10;79.60;;;;;;5008737;28;20029;-76
2023/04/04 06:10:54;;;;;;;7.82;1.88;;;0.10;79.30;;;;;;5006883;28;20035;-75
2023/04/04 06:13:19;;;;;;;4.78;1.85;;;0.20;79.20;;;;;;5004440;28;20391;-75
2023/04/04 06:15:45;;;;;;;3.92;1.65;;;0.20;79.10;;;;;;5008389;28;20088;-76
2023/04/04 06:18:10;;;;;;;7.70;1.73;;;0.30;78.60;;;;;;5009013;28;20526;-76
2023/04/04 06:20:36;;;;;;;4.88;1.75;;;0.40;78.90;;;;;;5007239;28;20479;-76
2023/04/04 06:23:03;;;;;;;4.03;1.85;;;0.50;78.30;;;;;;5008051;28;20026;-76
2023/04/04 06:25:30;;;;;;;2.97;1.35;;;0.60;78.30;;;;;;4987414;28;20427;-76
2023/04/04 06:27:55;;;;;;;4.93;1.33;;;0.60;78.00;;;;;;4989083;28;20022;-76
2023/04/04 06:30:21;;;;;;;7.85;1.73;;;0.60;77.60;;;;;;4999130;28;20485;-74
2023/04/04 06:32:47;;;;;;;4.78;1.45;;;0.80;77.70;;;;;;5000961;28;20052;-75
2023/04/04 06:35:12;;;;;;;4.35;1.77;;;1.00;78.10;;;;;;5005982;28;20052;-75
2023/04/04 06:37:38;;;;;;;4.88;1.42;;;1.00;76.30;;;;;;5007482;28;20053;-75
2023/04/04 06:40:04;;;;;;;6.18;1.40;;;1.10;76.10;;;;;;5006560;28;20017;-75
2023/04/04 06:42:29;;;;;;;3.25;1.30;;;1.30;76.60;;;;;;5013517;28;20033;-76
2023/04/04 06:44:55;;;;;;;5.82;1.30;;;1.40;75.10;;;;;;5012612;28;20034;-75
2023/04/04 06:47:21;;;;;;;4.38;1.42;;;1.40;75.30;;;;;;5010116;28;20107;-76
2023/04/04 06:49:46;;;;;;;3.65;1.38;;;1.50;74.10;;;;;;5013310;28;20104;-76
2023/04/04 06:52:12;;;;;;;4.32;1.60;;;1.80;74.40;;;;;;5010670;28;20553;-76
2023/04/04 06:54:38;;;;;;;4.47;1.65;;;1.90;74.30;;;;;;5000652;28;20083;-74
2023/04/04 06:57:03;;;;;;;5.57;1.55;;;2.00;75.30;;;;;;4990650;28;20021;-75
2023/04/04 06:59:29;;;;;;;3.10;1.50;;;2.20;72.90;;;;;;5004936;28;20087;-78
2023/04/04 07:01:56;;;;;;;2.75;1.25;;;2.10;71.50;;;;;;5008638;28;20052;-75
2023/04/04 07:04:21;;;;;;;2.75;1.27;;;2.00;71.20;;;;;;4993567;28;20080;-75
2023/04/04 07:06:47;;;;;;;5.25;1.10;;;2.20;72.60;;;;;;5014056;28;20045;-75
2023/04/04 07:09:12;;;;;;;3.05;1.27;;;2.20;70.70;;;;;;5007078;28;20447;-77
2023/04/04 07:11:37;;;;;;;4.25;1.50;;;2.10;69.30;;;;;;5014459;28;20108;-75
2023/04/04 07:14:03;;;;;;;3.45;1.45;;;2.60;71.90;;;;;;5012732;28;20095;-76
2023/04/04 07:16:30;;;;;;;4.72;1.52;;;2.60;69.80;;;;;;4993765;28;20370;-75
2023/04/04 07:18:55;;;;;;;4.40;1.10;;;2.50;69.10;;;;;;5002945;28;20324;-75
2023/04/04 07:21:21;;;;;;;4.93;1.30;;;2.60;69.10;;;;;;4998053;28;20157;-74
2023/04/04 07:23:47;;;;;;;2.90;1.20;;;2.70;68.50;;;;;;5017971;28;20047;-75
2023/04/04 07:26:12;;;;;;;2.65;1.02;;;3.00;68.60;;;;;;5016418;28;20037;-75
2023/04/04 07:28:38;;;;;;;7.55;1.38;;;2.80;68.80;;;;;;4995319;28;20044;-75
2023/04/04 07:31:03;;;;;;;5.20;1.27;;;3.20;68.50;;;;;;5010545;28;20450;-75
2023/04/04 07:33:29;;;;;;;4.78;1.25;;;3.20;67.30;;;;;;5011911;28;20025;-75
2023/04/04 07:35:54;;;;;;;3.80;1.25;;;3.30;65.90;;;;;;5015314;28;20041;-76
2023/04/04 07:38:20;;;;;;;1.77;1.17;;;3.40;66.70;;;;;;5011491;28;20137;-76
2023/04/04 07:40:48;;;;;;;3.65;1.00;;;3.30;66.20;;;;;;5016020;28;20052;-75
2023/04/04 07:43:13;;;;;;;3.42;1.00;;;3.50;65.20;;;;;;4994447;28;20220;-75
2023/04/04 07:45:39;;;;;;;2.92;1.17;;;3.50;65.70;;;;;;5015169;28;20383;-75
2023/04/04 07:48:05;;;;;;;3.13;1.40;;;3.40;65.40;;;;;;5020218;28;20022;-75
2023/04/04 07:50:30;;;;;;;6.97;1.70;;;3.60;65.80;;;;;;5021068;28;20048;-76
2023/04/04 07:52:57;;;;;;;4.90;1.80;;;3.80;64.90;;;;;;5018009;28;20025;-75
2023/04/04 07:55:24;;;;;;;4.72;1.58;;;4.10;65.30;;;;;;5018520;28;20021;-75
2023/04/04 07:57:51;;;;;;;3.28;1.50;;;4.10;63.80;;;;;;4999480;28;20061;-75
2023/04/04 08:00:20;;;;;;;3.88;1.52;;;3.80;63.10;;;;;;5014799;28;20182;-75
2023/04/04 08:02:52;;;;;;;4.63;1.30;;;4.20;63.60;;;;;;5010274;28;20173;-76
2023/04/04 08:05:17;;;;;;;4.28;1.50;;;4.40;64.40;;;;;;5014722;28;20086;-76
2023/04/04 08:07:43;;;;;;;6.60;1.40;;;4.50;62.10;;;;;;5016367;28;20163;-76
2023/04/04 08:10:09;;;;;;;5.80;1.58;;;4.80;63.50;;;;;;5009970;28;20408;-76
2023/04/04 08:12:34;;;;;;;4.10;1.60;;;5.10;62.10;;;;;;5011682;28;20417;-76
2023/04/04 08:15:00;;;;;;;5.05;1.63;;;4.90;59.80;;;;;;5015730;28;20030;-78
2023/04/04 08:17:27;;;;;;;3.22;1.38;;;4.80;59.20;;;;;;5013669;28;20038;-75
2023/04/04 08:19:52;;;;;;;4.22;1.35;;;4.90;60.00;;;;;;5013669;28;20041;-76
2023/04/04 08:22:18;;;;;;;6.18;1.65;;;5.10;59.20;;;;;;5014891;28;20490;-76
2023/04/04 08:24:43;;;;;;;5.50;1.80;;;5.40;60.40;;;;;;5017891;28;20468;-75
2023/04/04 08:27:09;;;;;;;4.75;1.58;;;5.60;58.70;;;;;;5019896;28;20056;-76
2023/04/04 08:29:35;;;;;;;3.72;1.42;;;6.00;59.20;;;;;;5008281;28;20022;-75
2023/04/04 08:32:00;;;;;;;3.50;1.35;;;6.60;56.30;;;;;;5018024;28;20034;-76
2023/04/04 08:34:27;;;;;;;4.65;1.50;;;6.00;55.50;;;;;;5018544;28;20083;-75
2023/04/04 08:36:52;;;;;;;7.05;1.85;;;6.20;55.10;;;;;;5014692;28;20056;-73
2023/04/04 08:39:18;;;;;;;4.03;1.60;;;6.10;54.10;;;;;;5014459;28;20625;-73
2023/04/04 08:41:45;;;;;;;6.45;1.75;;;6.70;57.30;;;;;;4997808;28;20037;-73
2023/04/04 08:44:21;;;;;;;6.70;2.08;;;6.70;54.30;;;;;;4994091;28;20036;-74
2023/04/04 08:46:48;;;;;;;4.72;1.42;;;6.80;55.10;;;;;;5008248;28;20084;-76
2023/04/04 08:49:15;;;;;;;4.35;1.48;;;6.70;52.80;;;;;;4999531;28;20037;-75
2023/04/04 08:51:43;;;;;;;4.35;1.80;;;7.10;53.30;;;;;;5014279;28;20053;-76
2023/04/04 08:54:09;;;;;;;4.28;1.90;;;7.30;53.60;;;;;;5002095;28;20095;-76
2023/04/04 08:56:35;;;;;;;5.22;1.77;;;6.60;53.30;;;;;;5015396;28;20037;-76
2023/04/04 08:59:00;;;;;;;4.20;1.13;;;6.80;53.20;;;;;;5012792;28;20037;-76
2023/04/04 09:01:28;;;;;;;4.15;1.30;;;6.70;52.20;;;;;;4995788;28;20052;-76
2023/04/04 09:03:55;;;;;;;3.92;1.67;;;6.70;52.60;;;;;;5014501;28;20029;-76
2023/04/04 09:06:22;;;;;;;4.70;1.50;;;7.10;51.80;;;;;;4993428;28;20460;-76
2023/04/04 09:08:50;;;;;;;3.47;1.48;;;7.00;53.40;;;;;;5015672;28;20053;-76
2023/04/04 09:11:18;;;;;;;5.53;1.40;;;7.50;50.70;;;;;;4996123;28;20061;-76
2023/04/04 09:13:44;;;;;;;4.68;1.95;;;6.80;51.90;;;;;;4993810;28;20455;-75
2023/04/04 09:16:09;;;;;;;3.13;1.50;;;7.20;51.80;;;;;;5017840;28;20096;-79
2023/04/04 09:18:35;;;;;;;4.88;1.73;;;7.00;51.20;;;;;;5015146;28;20042;-76
2023/04/04 09:21:11;;;;;;;5.10;1.42;;;7.10;50.30;;;;;;5017532;28;20117;-76
2023/04/04 09:23:37;;;;;;;2.92;1.38;;;6.80;50.30;;;;;;5012843;28;20045;-76
2023/04/04 09:26:03;;;;;;;3.72;1.40;;;7.10;50.80;;;;;;5015212;28;20162;-76
2023/04/04 09:28:28;;;;;;;5.05;1.48;;;7.20;50.60;;;;;;5013577;28;20022;-76
2023/04/04 09:30:54;;;;;;;5.22;1.50;;;7.60;49.90;;;;;;5012396;28;20166;-76
2023/04/04 09:33:22;;;;;;;6.93;1.73;;;7.10;50.00;;;;;;5011325;28;20033;-76
2023/04/04 09:35:52;;;;;;;5.30;1.40;;;7.40;50.70;;;;;;5012591;28;20186;-76
2023/04/04 09:38:22;;;;;;;4.80;1.70;;;7.10;48.80;;;;;;5006223;28;20776;-76
2023/04/04 09:40:48;;;;;;;4.88;1.35;;;7.40;51.10;;;;;;5001744;28;20145;-76
2023/04/04 09:43:15;;;;;;;4.45;1.35;;;7.30;49.70;;;;;;5002164;28;20454;-75
2023/04/04 09:45:43;;;;;;;3.83;1.40;;;8.00;49.30;;;;;;5006667;28;20025;-76
2023/04/04 09:48:09;;;;;;;3.80;1.40;;;8.00;45.10;;;;;;4989301;28;20500;-75
2023/04/04 09:50:36;;;;;;;2.40;1.20;;;8.10;46.40;;;;;;5005263;28;20053;-78
2023/04/04 09:53:02;;;;;;;2.95;1.38;;;8.10;47.30;;;;;;5007246;28;20026;-76
2023/04/04 09:55:36;;;;;;;4.75;1.70;;;8.80;48.30;;;;;;5007305;28;20045;-75
2023/04/04 09:58:14;;;;;;;4.53;1.23;;;9.00;46.90;;;;;;5004125;28;20113;-76
2023/04/04 10:00:41;;;;;;;5.10;1.15;;;9.40;47.40;;;;;;4985320;28;20336;-75
2023/04/04 10:03:07;;;;;;;2.83;1.45;;;8.80;44.20;;;;;;5004697;28;20100;-76
2023/04/04 10:05:33;;;;;;;5.03;1.23;;;9.20;43.90;;;;;;5007559;28;20030;-76
2023/04/04 10:07:59;;;;;;;3.85;1.40;;;8.90;42.30;;;;;;4989295;28;20112;-76
2023/04/04 10:10:30;;;;;;;3.53;1.10;;;8.70;45.60;;;;;;5008222;28;20159;-75
2023/04/04 10:12:56;;;;;;;;;;;9.70;44.00;;;;;;5008536;28;20148;-76
2023/04/04 10:15:23;;;;;;;1.48;0.82;;;9.30;43.80;;;;;;4990497;28;19988;-77
2023/04/04 10:17:51;;;;;;;4.43;1.45;;;9.10;44.50;;;;;;5009481;28;20385;-76
2023/04/04 10:20:17;;;;;;;3.47;1.00;;;9.00;43.80;;;;;;4998662;28;20034;-76
2023/04/04 10:22:45;;;;;;;4.70;1.30;;;9.30;43.90;;;;;;5002887;28;20049;-76
2023/04/04 10:25:10;;;;;;;2.35;1.10;;;8.90;45.80;;;;;;5005639;28;20041;-76
2023/04/04 10:27:37;;;;;;;3.25;1.30;;;9.40;45.50;;;;;;5006323;28;20025;-76
2023/04/04 10:30:03;;;;;;;2.28;0.80;;;9.40;43.10;;;;;;5002347;28;20056;-77
2023/04/04 10:32:50;;;;;;;4.72;1.23;;;9.60;42.40;;;;;;5004084;28;20053;-76
2023/04/04 10:35:17;;;;;;;3.42;1.20;;;9.20;43.20;;;;;;5000490;28;20062;-77
2023/04/04 10:37:51;;;;;;;3.08;1.00;;;9.50;42.30;;;;;;5006650;28;20029;-77
2023/04/04 10:40:20;;;;;;;2.10;0.95;;;9.50;42.70;;;;;;4988459;28;20435;-78
2023/04/04 10:42:46;;;;;;;6.30;1.75;;;9.60;42.10;;;;;;4999237;28;20044;-77
2023/04/04 10:45:15;;;;;;;6.20;1.35;;;9.30;43.20;;;;;;5004992;28;20041;-78
2023/04/04 10:47:42;;;;;;;4.88;1.30;;;8.90;43.90;;;;;;5003447;28;20339;-77
2023/04/04 10:50:12;;;;;;;1.65;0.93;;;8.70;43.30;;;;;;5003357;28;20203;-76
2023/04/04 10:52:41;;;;;;;1.90;1.00;;;8.80;44.40;;;;;;4988465;28;20166;-81
2023/04/04 10:55:09;;;;;;;5.38;1.30;;;8.70;41.50;;;;;;4989938;28;20029;-77
2023/04/04 10:57:39;;;;;;;6.22;1.20;;;9.30;43.80;;;;;;4989718;28;20025;-77
2023/04/04 11:00:10;;;;;;;2.95;1.13;;;9.40;41.60;;;;;;4996032;28;20494;-79
2023/04/04 11:02:54;;;;;;;;;;;10.10;44.60;;;;;;4977559;28;20148;-77
2023/04/04 11:05:26;;;;;;;2.67;1.08;;;9.50;40.70;;;;;;5000223;28;19987;-77
2023/04/04 11:08:01;;;;;;;4.47;1.30;;;9.60;40.40;;;;;;5003970;28;20105;-77
2023/04/04 11:10:29;;;;;;;4.38;1.35;;;9.80;40.90;;;;;;5000998;28;20037;-77
2023/04/04 11:12:56;;;;;;;2.72;1.27;;;9.10;42.30;;;;;;5002008;28;20041;-77
2023/04/04 11:15:24;;;;;;;5.38;1.20;;;9.30;43.00;;;;;;5001741;28;20041;-75
2023/04/04 11:17:57;;;;;;;2.30;1.00;;;10.40;42.70;;;;;;4982928;28;20108;-77
2023/04/04 11:20:28;;;;;;;6.38;1.40;;;10.60;38.60;;;;;;5003244;28;20399;-77
2023/04/04 11:23:08;;;;;;;3.70;1.40;;;10.80;37.70;;;;;;5001550;28;20354;-77
2023/04/04 11:25:36;;;;;;;2.15;1.10;;;11.10;38.90;;;;;;4998269;28;20100;-76
2023/04/04 11:28:06;;;;;;;3.50;1.08;;;11.00;38.20;;;;;;5011418;28;20021;-76
2023/04/04 11:30:37;;;;;;;3.83;1.13;;;10.50;39.40;;;;;;4997390;28;20204;-78
2023/04/04 11:33:03;;;;;;;2.13;1.02;;;9.90;37.80;;;;;;5008194;28;20481;-78
2023/04/04 11:35:29;;;;;;;4.85;1.20;;;9.60;37.60;;;;;;5009438;28;20168;-78
2023/04/04 11:37:54;;;;;;;2.47;1.20;;;9.60;39.40;;;;;;5006786;28;20121;-78
2023/04/04 11:40:32;;;;;;;3.28;1.30;;;9.40;39.40;;;;;;4998337;28;20066;-78
2023/04/04 11:43:02;;;;;;;3.08;1.20;;;10.10;38.70;;;;;;4999633;28;20030;-78
2023/04/04 11:45:29;;;;;;;4.35;1.23;;;11.10;38.00;;;;;;5004376;28;20363;-78
2023/04/04 11:47:56;;;;;;;1.98;1.02;;;11.60;38.90;;;;;;5002311;28;20464;-76
2023/04/04 11:50:22;;;;;;;2.42;1.20;;;11.80;37.20;;;;;;5004223;28;20053;-78
2023/04/04 11:52:49;;;;;;;3.30;1.38;;;12.10;37.10;;;;;;5006857;28;20121;-77
2023/04/04 11:55:17;;;;;;;5.07;1.15;;;10.70;38.70;;;;;;5006370;28;20026;-78
2023/04/04 11:57:42;;;;;;;3.35;1.13;;;11.10;37.30;;;;;;5001809;28;20105;-77
2023/04/04 12:00:11;;;;;;;3.97;1.48;;;11.10;36.60;;;;;;5009660;28;20181;-78
2023/04/04 12:02:38;;;;;;;3.88;1.55;;;10.60;36.60;;;;;;5006327;28;20038;-77
2023/04/04 12:05:05;;;;;;;4.60;1.10;;;10.50;38.10;;;;;;5002627;28;20033;-77
2023/04/04 12:07:32;;;;;;;4.22;1.13;;;10.10;38.50;;;;;;4998876;28;20030;-77
2023/04/04 12:10:02;;;;;;;2.30;0.90;;;10.90;38.20;;;;;;5007299;28;20014;-77
2023/04/04 12:12:27;;;;;;;2.38;1.20;;;11.80;36.80;;;;;;5008223;28;20022;-77
2023/04/04 12:14:53;;;;;;;2.55;1.02;;;12.30;37.40;;;;;;5009664;28;20061;-77
2023/04/04 12:17:19;;;;;;;2.53;1.30;;;11.30;37.40;;;;;;4988282;28;20114;-77
2023/04/04 12:19:44;;;;;;;4.18;1.20;;;11.50;36.00;;;;;;5002741;28;20055;-77
2023/04/04 12:22:10;;;;;;;3.72;1.20;;;11.30;36.50;;;;;;5001866;28;20366;-78
2023/04/04 12:24:36;;;;;;;2.03;1.00;;;11.10;37.10;;;;;;4999182;28;20041;-75
2023/04/04 12:27:02;;;;;;;3.83;1.30;;;11.20;36.90;;;;;;5005079;28;20109;-76
2023/04/04 12:29:34;;;;;;;7.63;1.60;;;10.50;37.40;;;;;;5004153;28;20037;-76
2023/04/04 12:32:01;;;;;;;2.88;1.25;;;10.90;38.40;;;;;;5006235;28;20041;-76
2023/04/04 12:34:30;;;;;;;2.42;1.20;;;11.00;37.00;;;;;;5007893;28;20032;-76